Clinton, Michigan
Current Conditions -  °F | °C
As of 6:53 AM on Thursday 23 Oct 2014 (Local Time) from KARB Reporting Station
Clear Clear  
Wind Chill: 30°   Ceiling: Unl
Heat Index: 30°   Visibility: NA
Dew Point: 27°   Wind: 0mph
Humidity: 88%   Direction: NA
Pressure: 30.24"   Gusts: NA
Location:  42.07°N, 83.97°W
Report Text: KARB 231053Z AUTO 00000KT CLR M01/M03 A3024 RMK AO2 SLP248 I1001 T10111028 $
Loading
Personal Weather Stations






























Interactive Weather Map
Tropical Storm Tracking
New forecast layout! Learn more

10-Day Weather Forecast

Advertisements
Track Severe Weather on mobile